Lr2 Pioneer — VREE7 — position and weather

sailwx.info

Track history (hours):
 
Tides and Currents Weather Stations Pressure Air Temp Water Temp Dewpoint Dewpoint Depression Visibility Wind Speed Wind Dir Waves Ship Positions

Lr2 Pioneer

Last reported at 2017-Sep-07 03:13 UTC. Time now 2017-Sep-19 20:54 UTC.
Position N 01°18' E 103°22'.
Warning: this ship's position is 12 days out of date.

Length 244 m; draft 8.5 m.

Type: Tanker. MMSI: 477114400.

Date/timePositionNaut miles runAvg speedWind from/ knotsBaromVisibWave heightAir tempDewpointWater temp
2017-Sep-07 03:13N 01°18' E 103°22'2 9.0
2017-Sep-07 02:57N 01°16' E 103°23'4 9.4
2017-Sep-07 02:30N 01°14' E 103°27'510.4
2017-Sep-07 02:01N 01°13' E 103°32'510.9
2017-Sep-07 01:30N 01°12' E 103°37'510.9
2017-Sep-07 01:00N 01°09' E 103°42'4 8.8
2017-Sep-07 00:30N 01°10' E 103°47'5 9.5
2017-Sep-07 00:01N 01°12' E 103°51'4 7.2
2017-Sep-06 23:31N 01°13' E 103°54'2 4.6
2017-Sep-06 23:01N 01°15' E 103°56'3 5.0
2017-Sep-06 22:29N 01°17' E 103°57'0 0.0
2017-Sep-06 21:49N 01°17' E 103°57'0 0.0
2017-Sep-06 21:28N 01°17' E 103°57'0 0.0
2017-Sep-06 20:55N 01°17' E 103°57'0 0.0
2017-Sep-06 20:25N 01°17' E 103°57'0 0.0
2017-Sep-06 19:55N 01°17' E 103°57'0 0.0
2017-Sep-06 19:19N 01°17' E 103°57'0 0.0
2017-Sep-06 18:55N 01°17' E 103°57'0 0.0
2017-Sep-06 17:46N 01°17' E 103°57'0 0.1
2017-Sep-06 17:19N 01°17' E 103°57'0 0.2
2017-Sep-06 16:55N 01°17' E 103°57'0 0.2
2017-Sep-06 16:25N 01°17' E 103°57'0 0.2
2017-Sep-06 15:55N 01°17' E 103°57'0 0.0
2017-Sep-06 15:28N 01°17' E 103°57'0 0.0
2017-Sep-06 14:52N 01°17' E 103°57'0 0.0
2017-Sep-06 14:16N 01°17' E 103°57'0 0.0
2017-Sep-06 12:13N 01°17' E 103°57'0 0.0
2017-Sep-06 11:58N 01°17' E 103°57'0 0.1
2017-Sep-06 11:28N 01°17' E 103°57'0 0.0
2017-Sep-06 10:55N 01°17' E 103°57'0 0.1
2017-Sep-06 10:25N 01°17' E 103°57'0 0.0
2017-Sep-06 09:55N 01°17' E 103°57'0 0.0
2017-Sep-06 09:19N 01°17' E 103°57'0 0.0
2017-Sep-06 08:58N 01°17' E 103°57'0 0.1
2017-Sep-06 08:30N 01°17' E 103°57'1 2.3
2017-Sep-06 08:00N 01°16' E 103°56'2 4.8
2017-Sep-06 07:30N 01°16' E 103°58'2 3.7
2017-Sep-06 07:00N 01°16' E 104°00'8 7.5
2017-Sep-06 05:55N 01°17' E 104°08'  
Track history (hours):
 
Tides and Currents Weather Stations Pressure Air Temp Water Temp Dewpoint Dewpoint Depression Visibility Wind Speed Wind Dir Waves Ship Positions

Lr2 Pioneer

Last reported at 2017-Sep-07 03:13 UTC. Time now 2017-Sep-19 20:54 UTC.
Position N 01°18' E 103°22'.
Warning: this ship's position is 12 days out of date.

Length 244 m; draft 8.5 m.

Type: Tanker. MMSI: 477114400.

Date/timePositionNaut miles runAvg speedWind from/ knotsBaromVisibWave heightAir tempDewpointWater temp
2017-Sep-07 03:13N 01°18' E 103°22'2 9.0
2017-Sep-07 02:57N 01°16' E 103°23'4 9.4
2017-Sep-07 02:30N 01°14' E 103°27'510.4
2017-Sep-07 02:01N 01°13' E 103°32'510.9
2017-Sep-07 01:30N 01°12' E 103°37'510.9
2017-Sep-07 01:00N 01°09' E 103°42'4 8.8
2017-Sep-07 00:30N 01°10' E 103°47'5 9.5
2017-Sep-07 00:01N 01°12' E 103°51'4 7.2
2017-Sep-06 23:31N 01°13' E 103°54'2 4.6
2017-Sep-06 23:01N 01°15' E 103°56'3 5.0
2017-Sep-06 22:29N 01°17' E 103°57'0 0.0
2017-Sep-06 21:49N 01°17' E 103°57'0 0.0
2017-Sep-06 21:28N 01°17' E 103°57'0 0.0
2017-Sep-06 20:55N 01°17' E 103°57'0 0.0
2017-Sep-06 20:25N 01°17' E 103°57'0 0.0
2017-Sep-06 19:55N 01°17' E 103°57'0 0.0
2017-Sep-06 19:19N 01°17' E 103°57'0 0.0
2017-Sep-06 18:55N 01°17' E 103°57'0 0.0
2017-Sep-06 17:46N 01°17' E 103°57'0 0.1
2017-Sep-06 17:19N 01°17' E 103°57'0 0.2
2017-Sep-06 16:55N 01°17' E 103°57'0 0.2
2017-Sep-06 16:25N 01°17' E 103°57'0 0.2
2017-Sep-06 15:55N 01°17' E 103°57'0 0.0
2017-Sep-06 15:28N 01°17' E 103°57'0 0.0
2017-Sep-06 14:52N 01°17' E 103°57'0 0.0
2017-Sep-06 14:16N 01°17' E 103°57'0 0.0
2017-Sep-06 12:13N 01°17' E 103°57'0 0.0
2017-Sep-06 11:58N 01°17' E 103°57'0 0.1
2017-Sep-06 11:28N 01°17' E 103°57'0 0.0
2017-Sep-06 10:55N 01°17' E 103°57'0 0.1
2017-Sep-06 10:25N 01°17' E 103°57'0 0.0
2017-Sep-06 09:55N 01°17' E 103°57'0 0.0
2017-Sep-06 09:19N 01°17' E 103°57'0 0.0
2017-Sep-06 08:58N 01°17' E 103°57'0 0.1
2017-Sep-06 08:30N 01°17' E 103°57'1 2.3
2017-Sep-06 08:00N 01°16' E 103°56'2 4.8
2017-Sep-06 07:30N 01°16' E 103°58'2 3.7
2017-Sep-06 07:00N 01°16' E 104°00'8 7.5
2017-Sep-06 05:55N 01°17' E 104°08'  

Dump ship's entire track history